sensor_id;sensor_type;location;lat;lon;timestamp;temperature;humidity
23475;DHT22;11910;52.086;21.066;2024-02-21T00:01:15;5.70;99.90
23475;DHT22;11910;52.086;21.066;2024-02-21T00:03:41;5.80;99.90
23475;DHT22;11910;52.086;21.066;2024-02-21T00:06:07;5.80;99.90
23475;DHT22;11910;52.086;21.066;2024-02-21T00:08:33;5.90;99.90
23475;DHT22;11910;52.086;21.066;2024-02-21T00:10:59;5.90;99.90
23475;DHT22;11910;52.086;21.066;2024-02-21T00:13:24;5.90;99.90
23475;DHT22;11910;52.086;21.066;2024-02-21T00:15:50;5.90;99.90
23475;DHT22;11910;52.086;21.066;2024-02-21T00:18:16;6.00;99.90
23475;DHT22;11910;52.086;21.066;2024-02-21T00:20:41;6.00;99.90
23475;DHT22;11910;52.086;21.066;2024-02-21T00:23:07;6.00;99.90
23475;DHT22;11910;52.086;21.066;2024-02-21T00:25:32;6.00;99.90
23475;DHT22;11910;52.086;21.066;2024-02-21T00:27:58;6.10;99.90
23475;DHT22;11910;52.086;21.066;2024-02-21T00:30:24;6.00;99.90
23475;DHT22;11910;52.086;21.066;2024-02-21T00:32:49;6.10;99.90
23475;DHT22;11910;52.086;21.066;2024-02-21T00:35:15;6.10;99.90
23475;DHT22;11910;52.086;21.066;2024-02-21T00:37:41;6.10;99.90
23475;DHT22;11910;52.086;21.066;2024-02-21T00:40:07;6.10;99.90
23475;DHT22;11910;52.086;21.066;2024-02-21T00:42:33;6.10;99.90
23475;DHT22;11910;52.086;21.066;2024-02-21T00:44:59;6.20;99.90
23475;DHT22;11910;52.086;21.066;2024-02-21T00:47:25;6.20;99.90
23475;DHT22;11910;52.086;21.066;2024-02-21T00:49:50;6.20;99.90
23475;DHT22;11910;52.086;21.066;2024-02-21T00:52:16;6.20;99.90
23475;DHT22;11910;52.086;21.066;2024-02-21T00:54:42;6.30;99.90
23475;DHT22;11910;52.086;21.066;2024-02-21T00:57:08;6.30;99.90
23475;DHT22;11910;52.086;21.066;2024-02-21T00:59:34;6.30;99.90
23475;DHT22;11910;52.086;21.066;2024-02-21T01:02:00;6.40;99.90
23475;DHT22;11910;52.086;21.066;2024-02-21T01:04:26;6.40;99.90
23475;DHT22;11910;52.086;21.066;2024-02-21T01:06:51;6.40;99.90
23475;DHT22;11910;52.086;21.066;2024-02-21T01:09:17;6.40;99.90
23475;DHT22;11910;52.086;21.066;2024-02-21T01:11:42;6.40;99.90
23475;DHT22;11910;52.086;21.066;2024-02-21T01:14:08;6.40;99.90
23475;DHT22;11910;52.086;21.066;2024-02-21T01:16:34;6.40;99.90
23475;DHT22;11910;52.086;21.066;2024-02-21T01:18:59;6.30;99.90
23475;DHT22;11910;52.086;21.066;2024-02-21T01:21:25;6.30;99.90
23475;DHT22;11910;52.086;21.066;2024-02-21T01:23:50;6.30;99.90
23475;DHT22;11910;52.086;21.066;2024-02-21T01:26:16;6.30;99.90
23475;DHT22;11910;52.086;21.066;2024-02-21T01:28:42;6.30;99.90
23475;DHT22;11910;52.086;21.066;2024-02-21T01:31:07;6.30;99.90
23475;DHT22;11910;52.086;21.066;2024-02-21T01:33:33;6.30;99.90
23475;DHT22;11910;52.086;21.066;2024-02-21T01:36:02;6.30;99.90
23475;DHT22;11910;52.086;21.066;2024-02-21T01:38:28;6.30;99.90
23475;DHT22;11910;52.086;21.066;2024-02-21T01:40:55;6.20;99.90
23475;DHT22;11910;52.086;21.066;2024-02-21T01:43:21;6.30;99.90
23475;DHT22;11910;52.086;21.066;2024-02-21T01:45:49;6.30;99.90
23475;DHT22;11910;52.086;21.066;2024-02-21T01:48:17;6.30;99.90
23475;DHT22;11910;52.086;21.066;2024-02-21T01:50:47;6.30;99.90
23475;DHT22;11910;52.086;21.066;2024-02-21T01:53:21;6.30;99.90
23475;DHT22;11910;52.086;21.066;2024-02-21T01:55:48;6.40;99.90
23475;DHT22;11910;52.086;21.066;2024-02-21T01:58:15;6.40;99.90
23475;DHT22;11910;52.086;21.066;2024-02-21T02:00:42;6.40;99.90
23475;DHT22;11910;52.086;21.066;2024-02-21T02:03:12;6.50;99.90
23475;DHT22;11910;52.086;21.066;2024-02-21T02:05:44;6.50;99.90
23475;DHT22;11910;52.086;21.066;2024-02-21T02:08:14;6.50;99.90
23475;DHT22;11910;52.086;21.066;2024-02-21T02:10:41;6.50;99.90
23475;DHT22;11910;52.086;21.066;2024-02-21T02:13:06;6.50;99.90
23475;DHT22;11910;52.086;21.066;2024-02-21T02:15:43;6.50;99.90
23475;DHT22;11910;52.086;21.066;2024-02-21T02:18:09;6.50;99.90
23475;DHT22;11910;52.086;21.066;2024-02-21T02:20:36;6.50;99.90
23475;DHT22;11910;52.086;21.066;2024-02-21T02:23:09;6.50;99.90
23475;DHT22;11910;52.086;21.066;2024-02-21T02:25:36;6.40;99.90
23475;DHT22;11910;52.086;21.066;2024-02-21T02:28:03;6.40;99.90
23475;DHT22;11910;52.086;21.066;2024-02-21T02:30:31;6.40;99.90
23475;DHT22;11910;52.086;21.066;2024-02-21T02:32:57;6.50;99.90
23475;DHT22;11910;52.086;21.066;2024-02-21T02:35:23;6.40;99.90
23475;DHT22;11910;52.086;21.066;2024-02-21T02:37:52;6.40;99.90
23475;DHT22;11910;52.086;21.066;2024-02-21T02:40:21;6.40;99.90
23475;DHT22;11910;52.086;21.066;2024-02-21T02:42:46;6.40;99.90
23475;DHT22;11910;52.086;21.066;2024-02-21T02:45:18;6.40;99.90
23475;DHT22;11910;52.086;21.066;2024-02-21T02:47:47;6.40;99.90
23475;DHT22;11910;52.086;21.066;2024-02-21T02:50:13;6.40;99.90
23475;DHT22;11910;52.086;21.066;2024-02-21T02:52:39;6.40;99.90
23475;DHT22;11910;52.086;21.066;2024-02-21T02:55:05;6.40;99.90
23475;DHT22;11910;52.086;21.066;2024-02-21T02:57:31;6.40;99.90
23475;DHT22;11910;52.086;21.066;2024-02-21T02:59:57;6.40;99.90
23475;DHT22;11910;52.086;21.066;2024-02-21T03:02:24;6.40;99.90
23475;DHT22;11910;52.086;21.066;2024-02-21T03:04:50;6.50;99.90
23475;DHT22;11910;52.086;21.066;2024-02-21T03:07:16;6.50;99.90
23475;DHT22;11910;52.086;21.066;2024-02-21T03:09:42;6.50;99.90
23475;DHT22;11910;52.086;21.066;2024-02-21T03:12:10;6.50;99.90
23475;DHT22;11910;52.086;21.066;2024-02-21T03:14:36;6.50;99.90
23475;DHT22;11910;52.086;21.066;2024-02-21T03:17:02;6.60;99.90
23475;DHT22;11910;52.086;21.066;2024-02-21T03:19:29;6.60;99.90
23475;DHT22;11910;52.086;21.066;2024-02-21T03:21:55;6.50;99.90
23475;DHT22;11910;52.086;21.066;2024-02-21T03:24:21;6.50;99.90
23475;DHT22;11910;52.086;21.066;2024-02-21T03:26:47;6.50;99.90
23475;DHT22;11910;52.086;21.066;2024-02-21T03:29:14;6.50;99.90
23475;DHT22;11910;52.086;21.066;2024-02-21T03:31:40;6.50;99.90
23475;DHT22;11910;52.086;21.066;2024-02-21T03:34:06;6.50;99.90
23475;DHT22;11910;52.086;21.066;2024-02-21T03:36:31;6.50;99.90
23475;DHT22;11910;52.086;21.066;2024-02-21T03:38:57;6.50;99.90
23475;DHT22;11910;52.086;21.066;2024-02-21T03:41:23;6.50;99.90
23475;DHT22;11910;52.086;21.066;2024-02-21T03:43:48;6.50;99.90
23475;DHT22;11910;52.086;21.066;2024-02-21T03:46:14;6.40;99.90
23475;DHT22;11910;52.086;21.066;2024-02-21T03:48:40;6.40;99.90
23475;DHT22;11910;52.086;21.066;2024-02-21T03:51:06;6.30;99.90
23475;DHT22;11910;52.086;21.066;2024-02-21T03:53:32;6.30;99.90
23475;DHT22;11910;52.086;21.066;2024-02-21T03:56:04;6.30;99.90
23475;DHT22;11910;52.086;21.066;2024-02-21T03:58:30;6.40;99.90
23475;DHT22;11910;52.086;21.066;2024-02-21T04:00:56;6.40;99.90
23475;DHT22;11910;52.086;21.066;2024-02-21T04:03:22;6.40;99.90
23475;DHT22;11910;52.086;21.066;2024-02-21T04:05:47;6.40;99.90
23475;DHT22;11910;52.086;21.066;2024-02-21T04:08:14;6.40;99.90
23475;DHT22;11910;52.086;21.066;2024-02-21T04:10:39;6.40;99.90
23475;DHT22;11910;52.086;21.066;2024-02-21T04:13:06;6.40;99.90
23475;DHT22;11910;52.086;21.066;2024-02-21T04:15:32;6.40;99.90
23475;DHT22;11910;52.086;21.066;2024-02-21T04:17:57;6.40;99.90
23475;DHT22;11910;52.086;21.066;2024-02-21T04:20:23;6.40;99.90
23475;DHT22;11910;52.086;21.066;2024-02-21T04:22:49;6.40;99.90
23475;DHT22;11910;52.086;21.066;2024-02-21T04:25:14;6.40;99.90
23475;DHT22;11910;52.086;21.066;2024-02-21T04:27:40;6.40;99.90
23475;DHT22;11910;52.086;21.066;2024-02-21T04:30:06;6.40;99.90
23475;DHT22;11910;52.086;21.066;2024-02-21T04:32:32;6.50;99.90
23475;DHT22;11910;52.086;21.066;2024-02-21T04:34:58;6.50;99.90
23475;DHT22;11910;52.086;21.066;2024-02-21T04:37:24;6.50;99.90
23475;DHT22;11910;52.086;21.066;2024-02-21T04:39:50;6.50;99.90
23475;DHT22;11910;52.086;21.066;2024-02-21T04:42:16;6.50;99.90
23475;DHT22;11910;52.086;21.066;2024-02-21T04:44:41;6.40;99.90
23475;DHT22;11910;52.086;21.066;2024-02-21T04:47:07;6.40;99.90
23475;DHT22;11910;52.086;21.066;2024-02-21T04:49:33;6.40;99.90
23475;DHT22;11910;52.086;21.066;2024-02-21T04:51:59;6.40;99.90
23475;DHT22;11910;52.086;21.066;2024-02-21T04:54:25;6.40;99.90
23475;DHT22;11910;52.086;21.066;2024-02-21T04:56:51;6.50;99.90
23475;DHT22;11910;52.086;21.066;2024-02-21T04:59:17;6.40;99.90
23475;DHT22;11910;52.086;21.066;2024-02-21T05:01:42;6.40;99.90
23475;DHT22;11910;52.086;21.066;2024-02-21T05:04:15;6.40;99.90
23475;DHT22;11910;52.086;21.066;2024-02-21T05:06:41;6.40;99.90
23475;DHT22;11910;52.086;21.066;2024-02-21T05:09:08;6.40;99.90
23475;DHT22;11910;52.086;21.066;2024-02-21T05:11:37;6.40;99.90
23475;DHT22;11910;52.086;21.066;2024-02-21T05:14:03;6.40;99.90
23475;DHT22;11910;52.086;21.066;2024-02-21T05:16:30;6.40;99.90
23475;DHT22;11910;52.086;21.066;2024-02-21T05:18:55;6.40;99.90
23475;DHT22;11910;52.086;21.066;2024-02-21T05:21:23;6.40;99.90
23475;DHT22;11910;52.086;21.066;2024-02-21T05:23:52;6.40;99.90
23475;DHT22;11910;52.086;21.066;2024-02-21T05:26:27;6.50;99.90
23475;DHT22;11910;52.086;21.066;2024-02-21T05:28:53;6.50;99.90
23475;DHT22;11910;52.086;21.066;2024-02-21T05:31:19;6.50;99.90
23475;DHT22;11910;52.086;21.066;2024-02-21T05:33:45;6.50;99.90
23475;DHT22;11910;52.086;21.066;2024-02-21T05:36:12;6.50;99.90
23475;DHT22;11910;52.086;21.066;2024-02-21T05:38:38;6.50;99.90
23475;DHT22;11910;52.086;21.066;2024-02-21T05:41:04;6.50;99.90
23475;DHT22;11910;52.086;21.066;2024-02-21T05:43:30;6.50;99.90
23475;DHT22;11910;52.086;21.066;2024-02-21T05:45:55;6.50;99.90
23475;DHT22;11910;52.086;21.066;2024-02-21T05:48:24;6.50;99.90
23475;DHT22;11910;52.086;21.066;2024-02-21T05:50:50;6.50;99.90
23475;DHT22;11910;52.086;21.066;2024-02-21T05:53:16;6.50;99.90
23475;DHT22;11910;52.086;21.066;2024-02-21T05:55:42;6.50;99.90
23475;DHT22;11910;52.086;21.066;2024-02-21T05:58:07;6.50;99.90
23475;DHT22;11910;52.086;21.066;2024-02-21T06:00:37;6.50;99.90
23475;DHT22;11910;52.086;21.066;2024-02-21T06:03:03;6.50;99.90
23475;DHT22;11910;52.086;21.066;2024-02-21T06:05:28;6.50;99.90
23475;DHT22;11910;52.086;21.066;2024-02-21T06:07:54;6.50;99.90
23475;DHT22;11910;52.086;21.066;2024-02-21T06:10:20;6.50;99.90
23475;DHT22;11910;52.086;21.066;2024-02-21T06:12:45;6.50;99.90
23475;DHT22;11910;52.086;21.066;2024-02-21T06:15:11;6.50;99.90
23475;DHT22;11910;52.086;21.066;2024-02-21T06:17:37;6.60;99.90
23475;DHT22;11910;52.086;21.066;2024-02-21T06:20:03;6.60;99.90
23475;DHT22;11910;52.086;21.066;2024-02-21T06:22:30;6.60;99.90
23475;DHT22;11910;52.086;21.066;2024-02-21T06:24:56;6.60;99.90
23475;DHT22;11910;52.086;21.066;2024-02-21T06:27:21;6.70;99.90
23475;DHT22;11910;52.086;21.066;2024-02-21T06:29:47;6.70;99.90
23475;DHT22;11910;52.086;21.066;2024-02-21T06:32:12;6.70;99.90
23475;DHT22;11910;52.086;21.066;2024-02-21T06:34:38;6.80;99.90
23475;DHT22;11910;52.086;21.066;2024-02-21T06:37:04;6.90;99.90
23475;DHT22;11910;52.086;21.066;2024-02-21T06:39:29;6.90;99.90
23475;DHT22;11910;52.086;21.066;2024-02-21T06:41:55;7.00;99.90
23475;DHT22;11910;52.086;21.066;2024-02-21T06:44:24;7.00;99.90
23475;DHT22;11910;52.086;21.066;2024-02-21T06:46:49;7.10;99.90
23475;DHT22;11910;52.086;21.066;2024-02-21T06:49:15;7.10;99.90
23475;DHT22;11910;52.086;21.066;2024-02-21T06:51:49;7.20;99.90
23475;DHT22;11910;52.086;21.066;2024-02-21T06:54:14;7.20;99.90
23475;DHT22;11910;52.086;21.066;2024-02-21T06:56:40;7.30;99.90
23475;DHT22;11910;52.086;21.066;2024-02-21T06:59:06;7.30;99.90
23475;DHT22;11910;52.086;21.066;2024-02-21T07:01:35;7.40;99.90
23475;DHT22;11910;52.086;21.066;2024-02-21T07:04:01;7.40;99.90
23475;DHT22;11910;52.086;21.066;2024-02-21T07:06:26;7.40;99.90
23475;DHT22;11910;52.086;21.066;2024-02-21T07:08:52;7.40;99.90
23475;DHT22;11910;52.086;21.066;2024-02-21T07:11:17;7.50;99.90
23475;DHT22;11910;52.086;21.066;2024-02-21T07:13:43;7.50;99.90
23475;DHT22;11910;52.086;21.066;2024-02-21T07:16:09;7.50;99.90
23475;DHT22;11910;52.086;21.066;2024-02-21T07:18:34;7.50;99.90
23475;DHT22;11910;52.086;21.066;2024-02-21T07:21:00;7.60;99.90
23475;DHT22;11910;52.086;21.066;2024-02-21T07:23:26;7.60;99.90
23475;DHT22;11910;52.086;21.066;2024-02-21T07:25:52;7.60;99.90
23475;DHT22;11910;52.086;21.066;2024-02-21T07:28:17;7.60;99.90
23475;DHT22;11910;52.086;21.066;2024-02-21T07:30:43;7.60;99.90
23475;DHT22;11910;52.086;21.066;2024-02-21T07:33:09;7.60;99.90
23475;DHT22;11910;52.086;21.066;2024-02-21T07:35:35;7.60;99.90
23475;DHT22;11910;52.086;21.066;2024-02-21T07:38:04;7.60;99.90
23475;DHT22;11910;52.086;21.066;2024-02-21T07:40:30;7.60;99.90
23475;DHT22;11910;52.086;21.066;2024-02-21T07:42:55;7.70;99.90
23475;DHT22;11910;52.086;21.066;2024-02-21T07:45:21;7.70;99.90
23475;DHT22;11910;52.086;21.066;2024-02-21T07:47:49;7.70;99.90
23475;DHT22;11910;52.086;21.066;2024-02-21T07:50:15;7.70;99.90
23475;DHT22;11910;52.086;21.066;2024-02-21T07:52:40;7.70;99.90
23475;DHT22;11910;52.086;21.066;2024-02-21T07:55:06;7.70;99.90
23475;DHT22;11910;52.086;21.066;2024-02-21T07:57:32;7.70;99.90
23475;DHT22;11910;52.086;21.066;2024-02-21T07:59:58;7.70;99.90
23475;DHT22;11910;52.086;21.066;2024-02-21T08:02:24;7.70;99.90
23475;DHT22;11910;52.086;21.066;2024-02-21T08:04:51;7.80;99.90
23475;DHT22;11910;52.086;21.066;2024-02-21T08:07:17;7.90;99.90
23475;DHT22;11910;52.086;21.066;2024-02-21T08:09:43;7.90;99.90
23475;DHT22;11910;52.086;21.066;2024-02-21T08:12:08;7.90;99.90
23475;DHT22;11910;52.086;21.066;2024-02-21T08:14:34;7.90;99.90
23475;DHT22;11910;52.086;21.066;2024-02-21T08:16:59;8.10;99.90
23475;DHT22;11910;52.086;21.066;2024-02-21T08:19:25;8.10;99.90
23475;DHT22;11910;52.086;21.066;2024-02-21T08:21:51;8.20;99.90
23475;DHT22;11910;52.086;21.066;2024-02-21T08:24:17;8.30;99.90
23475;DHT22;11910;52.086;21.066;2024-02-21T08:26:43;8.30;99.90
23475;DHT22;11910;52.086;21.066;2024-02-21T08:29:11;8.50;99.90
23475;DHT22;11910;52.086;21.066;2024-02-21T08:31:39;8.50;99.90
23475;DHT22;11910;52.086;21.066;2024-02-21T08:34:08;8.50;99.90
23475;DHT22;11910;52.086;21.066;2024-02-21T08:36:34;8.60;99.90
23475;DHT22;11910;52.086;21.066;2024-02-21T08:39:01;8.50;99.90
23475;DHT22;11910;52.086;21.066;2024-02-21T08:41:30;8.60;99.90
23475;DHT22;11910;52.086;21.066;2024-02-21T08:43:56;8.50;99.90
23475;DHT22;11910;52.086;21.066;2024-02-21T08:46:25;8.50;99.90
23475;DHT22;11910;52.086;21.066;2024-02-21T08:48:52;8.50;99.90
23475;DHT22;11910;52.086;21.066;2024-02-21T08:51:18;8.60;99.90
23475;DHT22;11910;52.086;21.066;2024-02-21T08:53:45;8.70;99.90
23475;DHT22;11910;52.086;21.066;2024-02-21T08:56:11;8.70;99.90
23475;DHT22;11910;52.086;21.066;2024-02-21T08:58:37;8.80;99.90
23475;DHT22;11910;52.086;21.066;2024-02-21T09:01:06;8.90;99.90
23475;DHT22;11910;52.086;21.066;2024-02-21T09:03:36;9.00;99.90
23475;DHT22;11910;52.086;21.066;2024-02-21T09:06:04;9.10;99.90
23475;DHT22;11910;52.086;21.066;2024-02-21T09:08:29;9.00;99.90
23475;DHT22;11910;52.086;21.066;2024-02-21T09:10:55;9.00;99.90
23475;DHT22;11910;52.086;21.066;2024-02-21T09:13:21;9.10;99.90
23475;DHT22;11910;52.086;21.066;2024-02-21T09:15:48;9.20;99.90
23475;DHT22;11910;52.086;21.066;2024-02-21T09:18:14;9.30;99.90
23475;DHT22;11910;52.086;21.066;2024-02-21T09:20:40;9.40;99.90
23475;DHT22;11910;52.086;21.066;2024-02-21T09:23:06;9.40;99.90
23475;DHT22;11910;52.086;21.066;2024-02-21T09:25:31;9.40;99.90
23475;DHT22;11910;52.086;21.066;2024-02-21T09:27:57;9.40;99.90
23475;DHT22;11910;52.086;21.066;2024-02-21T09:30:25;9.40;99.90
23475;DHT22;11910;52.086;21.066;2024-02-21T09:32:51;9.40;99.90
23475;DHT22;11910;52.086;21.066;2024-02-21T09:35:18;9.50;99.90
23475;DHT22;11910;52.086;21.066;2024-02-21T09:37:44;9.60;99.90
23475;DHT22;11910;52.086;21.066;2024-02-21T09:40:15;9.50;99.90
23475;DHT22;11910;52.086;21.066;2024-02-21T09:42:42;9.50;99.90
23475;DHT22;11910;52.086;21.066;2024-02-21T09:45:23;9.50;99.90
23475;DHT22;11910;52.086;21.066;2024-02-21T09:50:21;9.30;99.90
23475;DHT22;11910;52.086;21.066;2024-02-21T09:52:48;9.40;99.90
23475;DHT22;11910;52.086;21.066;2024-02-21T09:55:15;9.30;99.90
23475;DHT22;11910;52.086;21.066;2024-02-21T09:57:43;9.30;99.90
23475;DHT22;11910;52.086;21.066;2024-02-21T10:00:09;9.30;99.90
23475;DHT22;11910;52.086;21.066;2024-02-21T10:02:35;9.40;99.90
23475;DHT22;11910;52.086;21.066;2024-02-21T10:05:02;9.40;99.90
23475;DHT22;11910;52.086;21.066;2024-02-21T10:07:30;9.50;99.90
23475;DHT22;11910;52.086;21.066;2024-02-21T10:10:05;9.50;99.90
23475;DHT22;11910;52.086;21.066;2024-02-21T10:12:31;9.50;99.90
23475;DHT22;11910;52.086;21.066;2024-02-21T10:15:04;9.50;99.90
23475;DHT22;11910;52.086;21.066;2024-02-21T10:17:33;9.50;99.90
23475;DHT22;11910;52.086;21.066;2024-02-21T10:20:09;9.50;99.90
23475;DHT22;11910;52.086;21.066;2024-02-21T10:22:35;9.50;99.90
23475;DHT22;11910;52.086;21.066;2024-02-21T10:25:14;9.50;99.90
23475;DHT22;11910;52.086;21.066;2024-02-21T10:27:40;9.50;99.90
23475;DHT22;11910;52.086;21.066;2024-02-21T10:30:08;9.50;99.90
23475;DHT22;11910;52.086;21.066;2024-02-21T10:32:33;9.50;99.90
23475;DHT22;11910;52.086;21.066;2024-02-21T10:35:03;9.50;99.90
23475;DHT22;11910;52.086;21.066;2024-02-21T10:37:32;9.50;99.90
23475;DHT22;11910;52.086;21.066;2024-02-21T10:39:57;9.50;99.90
23475;DHT22;11910;52.086;21.066;2024-02-21T10:42:28;9.50;99.90
23475;DHT22;11910;52.086;21.066;2024-02-21T10:45:00;9.50;99.90
23475;DHT22;11910;52.086;21.066;2024-02-21T10:47:25;9.40;99.90
23475;DHT22;11910;52.086;21.066;2024-02-21T10:50:03;9.40;99.90
23475;DHT22;11910;52.086;21.066;2024-02-21T10:52:54;9.30;99.90
23475;DHT22;11910;52.086;21.066;2024-02-21T10:55:29;9.40;99.90
23475;DHT22;11910;52.086;21.066;2024-02-21T10:57:59;9.30;99.90
23475;DHT22;11910;52.086;21.066;2024-02-21T11:00:26;9.20;99.90
23475;DHT22;11910;52.086;21.066;2024-02-21T11:02:56;9.20;99.90
23475;DHT22;11910;52.086;21.066;2024-02-21T11:05:24;9.30;99.90
23475;DHT22;11910;52.086;21.066;2024-02-21T11:07:51;9.40;99.90
23475;DHT22;11910;52.086;21.066;2024-02-21T11:10:23;9.50;99.90
23475;DHT22;11910;52.086;21.066;2024-02-21T11:12:48;9.50;99.90
23475;DHT22;11910;52.086;21.066;2024-02-21T11:15:15;9.60;99.90
23475;DHT22;11910;52.086;21.066;2024-02-21T11:17:40;9.60;99.90
23475;DHT22;11910;52.086;21.066;2024-02-21T11:20:13;9.60;99.90
23475;DHT22;11910;52.086;21.066;2024-02-21T11:22:44;9.60;99.90
23475;DHT22;11910;52.086;21.066;2024-02-21T11:25:10;9.60;99.90
23475;DHT22;11910;52.086;21.066;2024-02-21T11:27:38;9.60;99.90
23475;DHT22;11910;52.086;21.066;2024-02-21T11:30:05;9.60;99.90
23475;DHT22;11910;52.086;21.066;2024-02-21T11:32:31;9.60;99.90
23475;DHT22;11910;52.086;21.066;2024-02-21T11:34:57;9.60;99.90
23475;DHT22;11910;52.086;21.066;2024-02-21T11:37:28;9.60;99.90
23475;DHT22;11910;52.086;21.066;2024-02-21T11:39:55;9.50;99.90
23475;DHT22;11910;52.086;21.066;2024-02-21T11:42:21;9.40;99.90
23475;DHT22;11910;52.086;21.066;2024-02-21T11:44:46;9.30;99.90
23475;DHT22;11910;52.086;21.066;2024-02-21T11:47:14;9.40;99.90
23475;DHT22;11910;52.086;21.066;2024-02-21T11:49:45;9.30;99.90
23475;DHT22;11910;52.086;21.066;2024-02-21T11:52:11;9.20;99.90
23475;DHT22;11910;52.086;21.066;2024-02-21T11:54:37;9.20;99.90
23475;DHT22;11910;52.086;21.066;2024-02-21T11:57:03;9.10;99.90
23475;DHT22;11910;52.086;21.066;2024-02-21T11:59:32;9.10;99.90
23475;DHT22;11910;52.086;21.066;2024-02-21T12:02:02;9.10;99.90
23475;DHT22;11910;52.086;21.066;2024-02-21T12:04:29;9.00;99.90
23475;DHT22;11910;52.086;21.066;2024-02-21T12:06:57;9.00;99.90
23475;DHT22;11910;52.086;21.066;2024-02-21T12:09:24;8.90;99.90
23475;DHT22;11910;52.086;21.066;2024-02-21T12:12:01;8.90;99.90
23475;DHT22;11910;52.086;21.066;2024-02-21T12:14:29;8.90;99.90
23475;DHT22;11910;52.086;21.066;2024-02-21T12:16:55;8.80;99.90
23475;DHT22;11910;52.086;21.066;2024-02-21T12:19:21;8.70;99.90
23475;DHT22;11910;52.086;21.066;2024-02-21T12:21:48;8.70;99.90
23475;DHT22;11910;52.086;21.066;2024-02-21T12:24:22;8.70;99.90
23475;DHT22;11910;52.086;21.066;2024-02-21T12:26:49;8.70;99.90
23475;DHT22;11910;52.086;21.066;2024-02-21T12:29:15;8.70;99.90
23475;DHT22;11910;52.086;21.066;2024-02-21T12:31:41;8.70;99.90
23475;DHT22;11910;52.086;21.066;2024-02-21T12:34:07;8.70;99.90
23475;DHT22;11910;52.086;21.066;2024-02-21T12:36:40;8.70;99.90
23475;DHT22;11910;52.086;21.066;2024-02-21T12:39:06;8.70;99.90
23475;DHT22;11910;52.086;21.066;2024-02-21T12:41:31;8.70;99.90
23475;DHT22;11910;52.086;21.066;2024-02-21T12:43:58;8.70;99.90
23475;DHT22;11910;52.086;21.066;2024-02-21T12:46:24;8.70;99.90
23475;DHT22;11910;52.086;21.066;2024-02-21T12:48:50;8.70;99.90
23475;DHT22;11910;52.086;21.066;2024-02-21T12:51:16;8.70;99.90
23475;DHT22;11910;52.086;21.066;2024-02-21T12:53:47;8.70;99.90
23475;DHT22;11910;52.086;21.066;2024-02-21T12:56:15;8.60;99.90
23475;DHT22;11910;52.086;21.066;2024-02-21T12:58:41;8.70;99.90
23475;DHT22;11910;52.086;21.066;2024-02-21T13:01:06;8.70;99.90
23475;DHT22;11910;52.086;21.066;2024-02-21T13:03:32;8.70;99.90
23475;DHT22;11910;52.086;21.066;2024-02-21T13:05:58;8.70;99.90
23475;DHT22;11910;52.086;21.066;2024-02-21T13:08:24;8.70;99.90
23475;DHT22;11910;52.086;21.066;2024-02-21T13:10:50;8.70;99.90
23475;DHT22;11910;52.086;21.066;2024-02-21T13:13:16;8.70;99.90
23475;DHT22;11910;52.086;21.066;2024-02-21T13:15:41;8.70;99.90
23475;DHT22;11910;52.086;21.066;2024-02-21T13:18:10;8.70;99.90
23475;DHT22;11910;52.086;21.066;2024-02-21T13:20:36;8.70;99.90
23475;DHT22;11910;52.086;21.066;2024-02-21T13:23:02;8.70;99.90
23475;DHT22;11910;52.086;21.066;2024-02-21T13:25:28;8.70;99.90
23475;DHT22;11910;52.086;21.066;2024-02-21T13:27:53;8.70;99.90
23475;DHT22;11910;52.086;21.066;2024-02-21T13:30:19;8.70;99.90
23475;DHT22;11910;52.086;21.066;2024-02-21T13:32:45;8.70;99.90
23475;DHT22;11910;52.086;21.066;2024-02-21T13:35:13;8.60;99.90
23475;DHT22;11910;52.086;21.066;2024-02-21T13:37:40;8.60;99.90
23475;DHT22;11910;52.086;21.066;2024-02-21T13:40:06;8.60;99.90
23475;DHT22;11910;52.086;21.066;2024-02-21T13:42:34;8.60;99.90
23475;DHT22;11910;52.086;21.066;2024-02-21T13:45:00;8.60;99.90
23475;DHT22;11910;52.086;21.066;2024-02-21T13:47:26;8.60;99.90
23475;DHT22;11910;52.086;21.066;2024-02-21T13:49:52;8.60;99.90
23475;DHT22;11910;52.086;21.066;2024-02-21T13:52:17;8.60;99.90
23475;DHT22;11910;52.086;21.066;2024-02-21T13:54:46;8.60;99.90
23475;DHT22;11910;52.086;21.066;2024-02-21T13:57:12;8.50;99.90
23475;DHT22;11910;52.086;21.066;2024-02-21T13:59:37;8.50;99.90
23475;DHT22;11910;52.086;21.066;2024-02-21T14:02:05;8.50;99.90
23475;DHT22;11910;52.086;21.066;2024-02-21T14:04:32;8.50;99.90
23475;DHT22;11910;52.086;21.066;2024-02-21T14:06:58;8.40;99.90
23475;DHT22;11910;52.086;21.066;2024-02-21T14:09:23;8.50;99.90
23475;DHT22;11910;52.086;21.066;2024-02-21T14:11:49;8.50;99.90
23475;DHT22;11910;52.086;21.066;2024-02-21T14:14:15;8.50;99.90
23475;DHT22;11910;52.086;21.066;2024-02-21T14:16:41;8.40;99.90
23475;DHT22;11910;52.086;21.066;2024-02-21T14:19:07;8.40;99.90
23475;DHT22;11910;52.086;21.066;2024-02-21T14:21:34;8.40;99.90
23475;DHT22;11910;52.086;21.066;2024-02-21T14:24:03;8.40;99.90
23475;DHT22;11910;52.086;21.066;2024-02-21T14:26:29;8.40;99.90
23475;DHT22;11910;52.086;21.066;2024-02-21T14:28:57;8.40;99.90
23475;DHT22;11910;52.086;21.066;2024-02-21T14:31:23;8.40;99.90
23475;DHT22;11910;52.086;21.066;2024-02-21T14:33:48;8.40;99.90
23475;DHT22;11910;52.086;21.066;2024-02-21T14:36:14;8.40;99.90
23475;DHT22;11910;52.086;21.066;2024-02-21T14:38:43;8.30;99.90
23475;DHT22;11910;52.086;21.066;2024-02-21T14:41:10;8.30;99.90
23475;DHT22;11910;52.086;21.066;2024-02-21T14:43:38;8.40;99.90
23475;DHT22;11910;52.086;21.066;2024-02-21T14:46:03;8.40;99.90
23475;DHT22;11910;52.086;21.066;2024-02-21T14:48:31;8.40;99.90
23475;DHT22;11910;52.086;21.066;2024-02-21T14:51:00;8.40;99.90
23475;DHT22;11910;52.086;21.066;2024-02-21T14:53:26;8.40;99.90
23475;DHT22;11910;52.086;21.066;2024-02-21T14:55:52;8.40;99.90
23475;DHT22;11910;52.086;21.066;2024-02-21T14:58:18;8.50;99.90
23475;DHT22;11910;52.086;21.066;2024-02-21T15:00:45;8.50;99.90
23475;DHT22;11910;52.086;21.066;2024-02-21T15:03:12;8.50;99.90
23475;DHT22;11910;52.086;21.066;2024-02-21T15:05:41;8.50;99.90
23475;DHT22;11910;52.086;21.066;2024-02-21T15:08:06;8.40;99.90
23475;DHT22;11910;52.086;21.066;2024-02-21T15:10:34;8.40;99.90
23475;DHT22;11910;52.086;21.066;2024-02-21T15:13:00;8.40;99.90
23475;DHT22;11910;52.086;21.066;2024-02-21T15:15:26;8.40;99.90
23475;DHT22;11910;52.086;21.066;2024-02-21T15:17:51;8.40;99.90
23475;DHT22;11910;52.086;21.066;2024-02-21T15:20:17;8.40;99.90
23475;DHT22;11910;52.086;21.066;2024-02-21T15:22:43;8.40;99.90
23475;DHT22;11910;52.086;21.066;2024-02-21T15:25:09;8.30;99.90
23475;DHT22;11910;52.086;21.066;2024-02-21T15:27:41;8.30;99.90
23475;DHT22;11910;52.086;21.066;2024-02-21T15:30:08;8.30;99.90